sensor_id;sensor_type;location;lat;lon;timestamp;P1;durP1;ratioP1;P2;durP2;ratioP2
55815;SDS011;41744;52.404;16.942;2024-02-15T00:01:30;32.37;;;15.20;;
55815;SDS011;41744;52.404;16.942;2024-02-15T00:03:56;37.63;;;15.47;;
55815;SDS011;41744;52.404;16.942;2024-02-15T00:06:22;31.33;;;14.27;;
55815;SDS011;41744;52.404;16.942;2024-02-15T00:08:48;30.33;;;14.33;;
55815;SDS011;41744;52.404;16.942;2024-02-15T00:11:17;30.27;;;14.33;;
55815;SDS011;41744;52.404;16.942;2024-02-15T00:13:43;30.70;;;13.77;;
55815;SDS011;41744;52.404;16.942;2024-02-15T00:16:12;30.13;;;13.73;;
55815;SDS011;41744;52.404;16.942;2024-02-15T00:18:38;29.43;;;13.23;;
55815;SDS011;41744;52.404;16.942;2024-02-15T00:21:04;25.83;;;13.47;;
55815;SDS011;41744;52.404;16.942;2024-02-15T00:23:30;31.60;;;13.93;;
55815;SDS011;41744;52.404;16.942;2024-02-15T00:25:57;29.30;;;13.30;;
55815;SDS011;41744;52.404;16.942;2024-02-15T00:28:23;26.97;;;13.17;;
55815;SDS011;41744;52.404;16.942;2024-02-15T00:30:51;28.23;;;13.20;;
55815;SDS011;41744;52.404;16.942;2024-02-15T00:33:17;27.50;;;13.03;;
55815;SDS011;41744;52.404;16.942;2024-02-15T00:35:43;27.53;;;13.13;;
55815;SDS011;41744;52.404;16.942;2024-02-15T00:38:09;29.80;;;13.57;;
55815;SDS011;41744;52.404;16.942;2024-02-15T00:40:35;25.77;;;11.43;;
55815;SDS011;41744;52.404;16.942;2024-02-15T00:43:01;28.07;;;12.93;;
55815;SDS011;41744;52.404;16.942;2024-02-15T00:45:27;26.90;;;13.23;;
55815;SDS011;41744;52.404;16.942;2024-02-15T00:47:53;25.97;;;13.10;;
55815;SDS011;41744;52.404;16.942;2024-02-15T00:50:21;28.97;;;14.00;;
55815;SDS011;41744;52.404;16.942;2024-02-15T00:52:46;28.63;;;13.87;;
55815;SDS011;41744;52.404;16.942;2024-02-15T00:55:12;27.50;;;14.70;;
55815;SDS011;41744;52.404;16.942;2024-02-15T00:57:38;30.97;;;15.33;;
55815;SDS011;41744;52.404;16.942;2024-02-15T01:00:05;35.23;;;16.10;;
55815;SDS011;41744;52.404;16.942;2024-02-15T01:02:34;31.70;;;15.10;;
55815;SDS011;41744;52.404;16.942;2024-02-15T01:05:01;34.20;;;15.47;;
55815;SDS011;41744;52.404;16.942;2024-02-15T01:07:27;32.33;;;15.30;;
55815;SDS011;41744;52.404;16.942;2024-02-15T01:09:53;34.47;;;15.83;;
55815;SDS011;41744;52.404;16.942;2024-02-15T01:12:19;35.33;;;15.50;;
55815;SDS011;41744;52.404;16.942;2024-02-15T01:14:46;30.70;;;15.47;;
55815;SDS011;41744;52.404;16.942;2024-02-15T01:17:12;33.93;;;16.00;;
55815;SDS011;41744;52.404;16.942;2024-02-15T01:19:38;33.37;;;15.87;;
55815;SDS011;41744;52.404;16.942;2024-02-15T01:22:05;33.30;;;15.43;;
55815;SDS011;41744;52.404;16.942;2024-02-15T01:24:31;34.17;;;16.37;;
55815;SDS011;41744;52.404;16.942;2024-02-15T01:26:57;34.93;;;16.63;;
55815;SDS011;41744;52.404;16.942;2024-02-15T01:29:23;35.07;;;17.07;;
55815;SDS011;41744;52.404;16.942;2024-02-15T01:31:50;37.47;;;16.27;;
55815;SDS011;41744;52.404;16.942;2024-02-15T01:34:16;31.50;;;15.47;;
55815;SDS011;41744;52.404;16.942;2024-02-15T01:36:42;33.37;;;16.23;;
55815;SDS011;41744;52.404;16.942;2024-02-15T01:39:08;38.20;;;16.23;;
55815;SDS011;41744;52.404;16.942;2024-02-15T01:41:35;33.60;;;15.90;;
55815;SDS011;41744;52.404;16.942;2024-02-15T01:44:01;31.60;;;15.27;;
55815;SDS011;41744;52.404;16.942;2024-02-15T01:46:27;31.00;;;14.47;;
55815;SDS011;41744;52.404;16.942;2024-02-15T01:48:54;32.50;;;14.63;;
55815;SDS011;41744;52.404;16.942;2024-02-15T01:51:21;37.37;;;15.80;;
55815;SDS011;41744;52.404;16.942;2024-02-15T01:53:48;31.10;;;15.03;;
55815;SDS011;41744;52.404;16.942;2024-02-15T01:56:14;31.53;;;15.07;;
55815;SDS011;41744;52.404;16.942;2024-02-15T01:58:42;33.30;;;14.53;;
55815;SDS011;41744;52.404;16.942;2024-02-15T02:01:08;30.33;;;15.00;;
55815;SDS011;41744;52.404;16.942;2024-02-15T02:03:34;28.37;;;14.07;;
55815;SDS011;41744;52.404;16.942;2024-02-15T02:06:01;30.00;;;14.90;;
55815;SDS011;41744;52.404;16.942;2024-02-15T02:08:28;30.57;;;15.13;;
55815;SDS011;41744;52.404;16.942;2024-02-15T02:10:54;31.00;;;15.10;;
55815;SDS011;41744;52.404;16.942;2024-02-15T02:13:19;31.27;;;14.77;;
55815;SDS011;41744;52.404;16.942;2024-02-15T02:15:46;30.53;;;15.93;;
55815;SDS011;41744;52.404;16.942;2024-02-15T02:18:12;29.60;;;14.57;;
55815;SDS011;41744;52.404;16.942;2024-02-15T02:20:38;35.27;;;15.73;;
55815;SDS011;41744;52.404;16.942;2024-02-15T02:23:08;29.83;;;14.57;;
55815;SDS011;41744;52.404;16.942;2024-02-15T02:25:35;33.53;;;14.60;;
55815;SDS011;41744;52.404;16.942;2024-02-15T02:28:01;30.73;;;14.33;;
55815;SDS011;41744;52.404;16.942;2024-02-15T02:30:27;29.67;;;14.73;;
55815;SDS011;41744;52.404;16.942;2024-02-15T02:32:57;30.77;;;14.90;;
55815;SDS011;41744;52.404;16.942;2024-02-15T02:35:24;31.80;;;15.17;;
55815;SDS011;41744;52.404;16.942;2024-02-15T02:37:50;33.23;;;14.07;;
55815;SDS011;41744;52.404;16.942;2024-02-15T02:40:18;31.23;;;13.87;;
55815;SDS011;41744;52.404;16.942;2024-02-15T02:45:16;30.73;;;14.47;;
55815;SDS011;41744;52.404;16.942;2024-02-15T02:47:44;32.57;;;14.60;;
55815;SDS011;41744;52.404;16.942;2024-02-15T02:50:11;31.93;;;14.90;;
55815;SDS011;41744;52.404;16.942;2024-02-15T02:52:37;29.03;;;14.37;;
55815;SDS011;41744;52.404;16.942;2024-02-15T02:55:04;30.33;;;14.50;;
55815;SDS011;41744;52.404;16.942;2024-02-15T02:57:33;28.93;;;14.63;;
55815;SDS011;41744;52.404;16.942;2024-02-15T03:00:00;33.97;;;14.97;;
55815;SDS011;41744;52.404;16.942;2024-02-15T03:02:29;26.57;;;13.23;;
55815;SDS011;41744;52.404;16.942;2024-02-15T03:04:56;27.50;;;13.77;;
55815;SDS011;41744;52.404;16.942;2024-02-15T03:07:24;31.27;;;13.73;;
55815;SDS011;41744;52.404;16.942;2024-02-15T03:09:51;24.70;;;13.43;;
55815;SDS011;41744;52.404;16.942;2024-02-15T03:12:17;30.03;;;14.00;;
55815;SDS011;41744;52.404;16.942;2024-02-15T03:14:43;28.93;;;13.10;;
55815;SDS011;41744;52.404;16.942;2024-02-15T03:17:10;25.93;;;13.10;;
55815;SDS011;41744;52.404;16.942;2024-02-15T03:19:36;24.97;;;13.10;;
55815;SDS011;41744;52.404;16.942;2024-02-15T03:22:02;26.50;;;13.30;;
55815;SDS011;41744;52.404;16.942;2024-02-15T03:24:28;25.93;;;13.73;;
55815;SDS011;41744;52.404;16.942;2024-02-15T03:26:54;26.40;;;13.27;;
55815;SDS011;41744;52.404;16.942;2024-02-15T03:29:20;27.47;;;13.97;;
55815;SDS011;41744;52.404;16.942;2024-02-15T03:31:47;26.97;;;13.37;;
55815;SDS011;41744;52.404;16.942;2024-02-15T03:34:14;26.23;;;13.63;;
55815;SDS011;41744;52.404;16.942;2024-02-15T03:36:40;25.53;;;13.47;;
55815;SDS011;41744;52.404;16.942;2024-02-15T03:39:06;28.60;;;13.20;;
55815;SDS011;41744;52.404;16.942;2024-02-15T03:41:33;30.30;;;13.83;;
55815;SDS011;41744;52.404;16.942;2024-02-15T03:43:59;31.17;;;14.47;;
55815;SDS011;41744;52.404;16.942;2024-02-15T03:46:25;30.83;;;14.40;;
55815;SDS011;41744;52.404;16.942;2024-02-15T03:48:53;27.80;;;14.57;;
55815;SDS011;41744;52.404;16.942;2024-02-15T03:51:21;28.93;;;14.83;;
55815;SDS011;41744;52.404;16.942;2024-02-15T03:53:49;32.20;;;14.57;;
55815;SDS011;41744;52.404;16.942;2024-02-15T03:56:17;29.23;;;14.20;;
55815;SDS011;41744;52.404;16.942;2024-02-15T03:58:43;25.83;;;13.77;;
55815;SDS011;41744;52.404;16.942;2024-02-15T04:01:09;32.83;;;14.73;;
55815;SDS011;41744;52.404;16.942;2024-02-15T04:03:38;26.47;;;13.57;;
55815;SDS011;41744;52.404;16.942;2024-02-15T04:06:05;29.93;;;14.30;;
55815;SDS011;41744;52.404;16.942;2024-02-15T04:08:31;28.10;;;13.97;;
55815;SDS011;41744;52.404;16.942;2024-02-15T04:10:58;27.90;;;14.30;;
55815;SDS011;41744;52.404;16.942;2024-02-15T04:13:24;32.70;;;14.73;;
55815;SDS011;41744;52.404;16.942;2024-02-15T04:15:50;31.87;;;14.03;;
55815;SDS011;41744;52.404;16.942;2024-02-15T04:18:18;29.43;;;13.90;;
55815;SDS011;41744;52.404;16.942;2024-02-15T04:20:44;29.63;;;14.07;;
55815;SDS011;41744;52.404;16.942;2024-02-15T04:23:11;29.53;;;14.30;;
55815;SDS011;41744;52.404;16.942;2024-02-15T04:25:38;28.33;;;13.63;;
55815;SDS011;41744;52.404;16.942;2024-02-15T04:28:05;27.63;;;13.10;;
55815;SDS011;41744;52.404;16.942;2024-02-15T04:30:33;24.27;;;12.67;;
55815;SDS011;41744;52.404;16.942;2024-02-15T04:33:03;26.20;;;13.30;;
55815;SDS011;41744;52.404;16.942;2024-02-15T04:35:29;24.73;;;13.27;;
55815;SDS011;41744;52.404;16.942;2024-02-15T04:37:55;29.77;;;14.07;;
55815;SDS011;41744;52.404;16.942;2024-02-15T04:40:22;28.50;;;14.07;;
55815;SDS011;41744;52.404;16.942;2024-02-15T04:42:48;27.40;;;14.13;;
55815;SDS011;41744;52.404;16.942;2024-02-15T04:45:14;27.40;;;14.13;;
55815;SDS011;41744;52.404;16.942;2024-02-15T04:47:41;27.40;;;14.67;;
55815;SDS011;41744;52.404;16.942;2024-02-15T04:50:07;28.83;;;14.03;;
55815;SDS011;41744;52.404;16.942;2024-02-15T04:52:34;26.73;;;14.57;;
55815;SDS011;41744;52.404;16.942;2024-02-15T04:55:00;28.83;;;15.33;;
55815;SDS011;41744;52.404;16.942;2024-02-15T04:57:29;28.63;;;15.17;;
55815;SDS011;41744;52.404;16.942;2024-02-15T04:59:55;30.73;;;13.93;;
55815;SDS011;41744;52.404;16.942;2024-02-15T05:02:23;29.53;;;14.73;;
55815;SDS011;41744;52.404;16.942;2024-02-15T05:04:50;30.13;;;14.57;;
55815;SDS011;41744;52.404;16.942;2024-02-15T05:07:21;28.77;;;13.57;;
55815;SDS011;41744;52.404;16.942;2024-02-15T05:09:47;27.90;;;13.73;;
55815;SDS011;41744;52.404;16.942;2024-02-15T05:12:21;31.77;;;14.23;;
55815;SDS011;41744;52.404;16.942;2024-02-15T05:14:48;25.03;;;13.60;;
55815;SDS011;41744;52.404;16.942;2024-02-15T05:17:15;27.63;;;12.80;;
55815;SDS011;41744;52.404;16.942;2024-02-15T05:19:41;24.63;;;13.30;;
55815;SDS011;41744;52.404;16.942;2024-02-15T05:22:07;27.57;;;13.07;;
55815;SDS011;41744;52.404;16.942;2024-02-15T05:24:33;26.53;;;12.80;;
55815;SDS011;41744;52.404;16.942;2024-02-15T05:26:59;25.53;;;11.90;;
55815;SDS011;41744;52.404;16.942;2024-02-15T05:29:26;25.20;;;13.27;;
55815;SDS011;41744;52.404;16.942;2024-02-15T05:31:53;24.23;;;12.50;;
55815;SDS011;41744;52.404;16.942;2024-02-15T05:34:19;27.20;;;12.87;;
55815;SDS011;41744;52.404;16.942;2024-02-15T05:36:45;32.20;;;13.80;;
55815;SDS011;41744;52.404;16.942;2024-02-15T05:39:13;24.27;;;12.30;;
55815;SDS011;41744;52.404;16.942;2024-02-15T05:41:39;24.67;;;12.83;;
55815;SDS011;41744;52.404;16.942;2024-02-15T05:44:05;26.77;;;12.67;;
55815;SDS011;41744;52.404;16.942;2024-02-15T05:46:32;25.07;;;13.73;;
55815;SDS011;41744;52.404;16.942;2024-02-15T05:49:02;27.23;;;14.03;;
55815;SDS011;41744;52.404;16.942;2024-02-15T05:51:30;28.87;;;13.97;;
55815;SDS011;41744;52.404;16.942;2024-02-15T05:53:59;27.07;;;13.37;;
55815;SDS011;41744;52.404;16.942;2024-02-15T05:56:25;27.63;;;13.30;;
55815;SDS011;41744;52.404;16.942;2024-02-15T05:58:53;25.87;;;13.43;;
55815;SDS011;41744;52.404;16.942;2024-02-15T06:01:20;30.17;;;13.47;;
55815;SDS011;41744;52.404;16.942;2024-02-15T06:03:46;28.47;;;13.60;;
55815;SDS011;41744;52.404;16.942;2024-02-15T06:06:13;27.40;;;13.23;;
55815;SDS011;41744;52.404;16.942;2024-02-15T06:08:40;29.00;;;14.13;;
55815;SDS011;41744;52.404;16.942;2024-02-15T06:11:06;29.17;;;13.33;;
55815;SDS011;41744;52.404;16.942;2024-02-15T06:13:34;27.43;;;12.43;;
55815;SDS011;41744;52.404;16.942;2024-02-15T06:16:00;24.90;;;11.97;;
55815;SDS011;41744;52.404;16.942;2024-02-15T06:18:29;27.03;;;11.80;;
55815;SDS011;41744;52.404;16.942;2024-02-15T06:20:58;25.53;;;11.57;;
55815;SDS011;41744;52.404;16.942;2024-02-15T06:23:27;26.97;;;12.37;;
55815;SDS011;41744;52.404;16.942;2024-02-15T06:25:54;26.03;;;11.83;;
55815;SDS011;41744;52.404;16.942;2024-02-15T06:28:21;27.97;;;12.17;;
55815;SDS011;41744;52.404;16.942;2024-02-15T06:31:07;25.97;;;11.93;;
55815;SDS011;41744;52.404;16.942;2024-02-15T06:33:51;26.50;;;12.00;;
55815;SDS011;41744;52.404;16.942;2024-02-15T06:36:40;25.80;;;11.87;;
55815;SDS011;41744;52.404;16.942;2024-02-15T06:39:24;23.27;;;11.60;;
55815;SDS011;41744;52.404;16.942;2024-02-15T06:42:06;25.13;;;11.53;;
55815;SDS011;41744;52.404;16.942;2024-02-15T06:44:32;25.30;;;11.57;;
55815;SDS011;41744;52.404;16.942;2024-02-15T06:46:58;25.10;;;11.30;;
55815;SDS011;41744;52.404;16.942;2024-02-15T06:49:24;27.70;;;12.03;;
55815;SDS011;41744;52.404;16.942;2024-02-15T06:51:51;24.27;;;11.87;;
55815;SDS011;41744;52.404;16.942;2024-02-15T06:54:17;19.13;;;10.67;;
55815;SDS011;41744;52.404;16.942;2024-02-15T06:56:46;23.27;;;11.40;;
55815;SDS011;41744;52.404;16.942;2024-02-15T06:59:12;22.97;;;11.57;;
55815;SDS011;41744;52.404;16.942;2024-02-15T07:01:45;23.70;;;12.03;;
55815;SDS011;41744;52.404;16.942;2024-02-15T07:04:11;24.20;;;11.07;;
55815;SDS011;41744;52.404;16.942;2024-02-15T07:06:37;24.30;;;12.67;;
55815;SDS011;41744;52.404;16.942;2024-02-15T07:09:04;25.03;;;11.10;;
55815;SDS011;41744;52.404;16.942;2024-02-15T07:11:34;28.33;;;13.23;;
55815;SDS011;41744;52.404;16.942;2024-02-15T07:14:00;27.00;;;13.13;;
55815;SDS011;41744;52.404;16.942;2024-02-15T07:16:26;27.67;;;13.60;;
55815;SDS011;41744;52.404;16.942;2024-02-15T07:18:52;30.73;;;15.17;;
55815;SDS011;41744;52.404;16.942;2024-02-15T07:21:21;30.83;;;14.70;;
55815;SDS011;41744;52.404;16.942;2024-02-15T07:23:54;28.60;;;14.43;;
55815;SDS011;41744;52.404;16.942;2024-02-15T07:26:23;29.70;;;13.97;;
55815;SDS011;41744;52.404;16.942;2024-02-15T07:28:53;28.70;;;13.27;;
55815;SDS011;41744;52.404;16.942;2024-02-15T07:31:19;25.53;;;12.60;;
55815;SDS011;41744;52.404;16.942;2024-02-15T07:33:50;25.57;;;13.00;;
55815;SDS011;41744;52.404;16.942;2024-02-15T07:36:21;25.10;;;12.20;;
55815;SDS011;41744;52.404;16.942;2024-02-15T07:38:48;24.07;;;11.93;;
55815;SDS011;41744;52.404;16.942;2024-02-15T07:41:14;22.60;;;12.13;;
55815;SDS011;41744;52.404;16.942;2024-02-15T07:43:40;27.03;;;12.83;;
55815;SDS011;41744;52.404;16.942;2024-02-15T07:46:06;24.50;;;11.90;;
55815;SDS011;41744;52.404;16.942;2024-02-15T07:48:32;25.50;;;12.37;;
55815;SDS011;41744;52.404;16.942;2024-02-15T07:50:58;29.20;;;12.37;;
55815;SDS011;41744;52.404;16.942;2024-02-15T07:53:24;27.93;;;13.37;;
55815;SDS011;41744;52.404;16.942;2024-02-15T07:55:50;23.43;;;12.90;;
55815;SDS011;41744;52.404;16.942;2024-02-15T07:58:16;24.47;;;12.33;;
55815;SDS011;41744;52.404;16.942;2024-02-15T08:00:44;24.43;;;12.70;;
55815;SDS011;41744;52.404;16.942;2024-02-15T08:03:10;30.10;;;12.60;;
55815;SDS011;41744;52.404;16.942;2024-02-15T08:05:36;27.33;;;13.47;;
55815;SDS011;41744;52.404;16.942;2024-02-15T08:08:03;31.03;;;12.77;;
55815;SDS011;41744;52.404;16.942;2024-02-15T08:10:29;25.90;;;13.10;;
55815;SDS011;41744;52.404;16.942;2024-02-15T08:12:55;24.97;;;12.53;;
55815;SDS011;41744;52.404;16.942;2024-02-15T08:15:23;25.77;;;12.57;;
55815;SDS011;41744;52.404;16.942;2024-02-15T08:17:49;24.90;;;12.33;;
55815;SDS011;41744;52.404;16.942;2024-02-15T08:20:15;22.00;;;11.87;;
55815;SDS011;41744;52.404;16.942;2024-02-15T08:22:46;26.70;;;12.33;;
55815;SDS011;41744;52.404;16.942;2024-02-15T08:25:12;21.10;;;10.87;;
55815;SDS011;41744;52.404;16.942;2024-02-15T08:27:41;24.93;;;11.80;;
55815;SDS011;41744;52.404;16.942;2024-02-15T08:30:10;22.37;;;12.13;;
55815;SDS011;41744;52.404;16.942;2024-02-15T08:32:37;25.00;;;11.93;;
55815;SDS011;41744;52.404;16.942;2024-02-15T08:35:04;24.07;;;12.07;;
55815;SDS011;41744;52.404;16.942;2024-02-15T08:37:31;22.90;;;11.47;;
55815;SDS011;41744;52.404;16.942;2024-02-15T08:39:59;24.50;;;12.60;;
55815;SDS011;41744;52.404;16.942;2024-02-15T08:42:25;25.27;;;12.23;;
55815;SDS011;41744;52.404;16.942;2024-02-15T08:44:51;22.60;;;12.53;;
55815;SDS011;41744;52.404;16.942;2024-02-15T08:47:17;26.23;;;13.07;;
55815;SDS011;41744;52.404;16.942;2024-02-15T08:49:43;26.00;;;13.33;;
55815;SDS011;41744;52.404;16.942;2024-02-15T08:52:09;26.00;;;12.90;;
55815;SDS011;41744;52.404;16.942;2024-02-15T08:54:35;26.53;;;12.63;;
55815;SDS011;41744;52.404;16.942;2024-02-15T08:57:03;29.40;;;13.30;;
55815;SDS011;41744;52.404;16.942;2024-02-15T08:59:30;27.67;;;13.67;;
55815;SDS011;41744;52.404;16.942;2024-02-15T09:01:56;27.63;;;13.70;;
55815;SDS011;41744;52.404;16.942;2024-02-15T09:04:22;31.37;;;14.03;;
55815;SDS011;41744;52.404;16.942;2024-02-15T09:06:49;26.73;;;13.43;;
55815;SDS011;41744;52.404;16.942;2024-02-15T09:09:16;28.63;;;13.30;;
55815;SDS011;41744;52.404;16.942;2024-02-15T09:11:42;27.60;;;14.40;;
55815;SDS011;41744;52.404;16.942;2024-02-15T09:14:08;27.63;;;13.30;;
55815;SDS011;41744;52.404;16.942;2024-02-15T09:16:37;29.27;;;13.13;;
55815;SDS011;41744;52.404;16.942;2024-02-15T09:19:04;26.13;;;13.17;;
55815;SDS011;41744;52.404;16.942;2024-02-15T09:21:31;33.07;;;14.03;;
55815;SDS011;41744;52.404;16.942;2024-02-15T09:23:58;31.87;;;14.13;;
55815;SDS011;41744;52.404;16.942;2024-02-15T09:26:25;26.60;;;14.03;;
55815;SDS011;41744;52.404;16.942;2024-02-15T09:28:52;30.80;;;13.57;;
55815;SDS011;41744;52.404;16.942;2024-02-15T09:31:18;29.73;;;13.17;;
55815;SDS011;41744;52.404;16.942;2024-02-15T09:33:44;23.63;;;13.00;;
55815;SDS011;41744;52.404;16.942;2024-02-15T09:36:10;29.87;;;12.80;;
55815;SDS011;41744;52.404;16.942;2024-02-15T09:38:37;26.00;;;12.33;;
55815;SDS011;41744;52.404;16.942;2024-02-15T09:41:03;23.37;;;11.60;;
55815;SDS011;41744;52.404;16.942;2024-02-15T09:43:32;27.37;;;12.43;;
55815;SDS011;41744;52.404;16.942;2024-02-15T09:45:58;23.60;;;12.27;;
55815;SDS011;41744;52.404;16.942;2024-02-15T09:48:24;22.37;;;11.43;;
55815;SDS011;41744;52.404;16.942;2024-02-15T09:50:52;23.37;;;11.30;;
55815;SDS011;41744;52.404;16.942;2024-02-15T09:53:21;22.97;;;12.00;;
55815;SDS011;41744;52.404;16.942;2024-02-15T09:55:51;21.73;;;10.43;;
55815;SDS011;41744;52.404;16.942;2024-02-15T09:58:29;18.80;;;10.23;;
55815;SDS011;41744;52.404;16.942;2024-02-15T10:00:58;19.33;;;9.83;;
55815;SDS011;41744;52.404;16.942;2024-02-15T10:03:24;21.37;;;9.97;;
55815;SDS011;41744;52.404;16.942;2024-02-15T10:05:51;19.07;;;9.43;;
55815;SDS011;41744;52.404;16.942;2024-02-15T10:08:17;21.57;;;9.73;;
55815;SDS011;41744;52.404;16.942;2024-02-15T10:10:46;20.27;;;10.20;;
55815;SDS011;41744;52.404;16.942;2024-02-15T10:13:12;18.63;;;9.60;;
55815;SDS011;41744;52.404;16.942;2024-02-15T10:15:39;19.67;;;9.77;;
55815;SDS011;41744;52.404;16.942;2024-02-15T10:18:08;24.03;;;10.93;;
55815;SDS011;41744;52.404;16.942;2024-02-15T10:20:38;22.03;;;10.07;;
55815;SDS011;41744;52.404;16.942;2024-02-15T10:25:36;21.07;;;10.03;;
55815;SDS011;41744;52.404;16.942;2024-02-15T10:28:05;24.87;;;10.70;;
55815;SDS011;41744;52.404;16.942;2024-02-15T10:30:33;23.33;;;10.40;;
55815;SDS011;41744;52.404;16.942;2024-02-15T10:32:59;22.53;;;10.07;;
55815;SDS011;41744;52.404;16.942;2024-02-15T10:35:25;24.53;;;10.40;;
55815;SDS011;41744;52.404;16.942;2024-02-15T10:37:51;21.57;;;10.53;;
55815;SDS011;41744;52.404;16.942;2024-02-15T10:40:18;25.63;;;10.47;;
55815;SDS011;41744;52.404;16.942;2024-02-15T10:42:45;22.17;;;10.27;;
55815;SDS011;41744;52.404;16.942;2024-02-15T10:45:12;19.87;;;9.97;;
55815;SDS011;41744;52.404;16.942;2024-02-15T10:47:39;24.47;;;11.13;;
55815;SDS011;41744;52.404;16.942;2024-02-15T10:50:06;20.50;;;10.10;;
55815;SDS011;41744;52.404;16.942;2024-02-15T10:52:32;26.10;;;11.03;;
55815;SDS011;41744;52.404;16.942;2024-02-15T10:55:04;21.57;;;10.23;;
55815;SDS011;41744;52.404;16.942;2024-02-15T10:57:34;21.30;;;9.60;;
55815;SDS011;41744;52.404;16.942;2024-02-15T11:00:04;26.30;;;10.20;;
55815;SDS011;41744;52.404;16.942;2024-02-15T11:02:42;23.33;;;9.50;;
55815;SDS011;41744;52.404;16.942;2024-02-15T11:05:08;19.93;;;9.37;;
55815;SDS011;41744;52.404;16.942;2024-02-15T11:07:35;21.50;;;10.80;;
55815;SDS011;41744;52.404;16.942;2024-02-15T11:10:02;22.17;;;11.17;;
55815;SDS011;41744;52.404;16.942;2024-02-15T11:12:31;23.20;;;11.23;;
55815;SDS011;41744;52.404;16.942;2024-02-15T11:14:57;21.53;;;10.80;;
55815;SDS011;41744;52.404;16.942;2024-02-15T11:20:05;23.47;;;10.47;;
55815;SDS011;41744;52.404;16.942;2024-02-15T11:22:34;22.93;;;10.47;;
55815;SDS011;41744;52.404;16.942;2024-02-15T11:25:04;23.93;;;11.40;;
55815;SDS011;41744;52.404;16.942;2024-02-15T11:27:34;23.70;;;11.43;;
55815;SDS011;41744;52.404;16.942;2024-02-15T11:30:02;22.83;;;10.80;;
55815;SDS011;41744;52.404;16.942;2024-02-15T11:35:06;20.00;;;9.83;;
55815;SDS011;41744;52.404;16.942;2024-02-15T11:40:24;16.97;;;9.40;;
55815;SDS011;41744;52.404;16.942;2024-02-15T11:42:56;21.03;;;10.43;;
55815;SDS011;41744;52.404;16.942;2024-02-15T11:45:28;19.70;;;10.47;;
55815;SDS011;41744;52.404;16.942;2024-02-15T11:48:09;19.13;;;10.00;;
55815;SDS011;41744;52.404;16.942;2024-02-15T11:50:39;21.97;;;9.93;;
55815;SDS011;41744;52.404;16.942;2024-02-15T11:53:06;18.27;;;10.03;;
55815;SDS011;41744;52.404;16.942;2024-02-15T11:55:35;22.67;;;10.27;;
55815;SDS011;41744;52.404;16.942;2024-02-15T11:58:02;20.80;;;10.70;;
55815;SDS011;41744;52.404;16.942;2024-02-15T12:00:34;19.10;;;9.77;;
55815;SDS011;41744;52.404;16.942;2024-02-15T12:03:19;16.40;;;8.63;;
55815;SDS011;41744;52.404;16.942;2024-02-15T12:06:05;20.40;;;9.53;;
55815;SDS011;41744;52.404;16.942;2024-02-15T12:08:51;23.43;;;11.07;;
55815;SDS011;41744;52.404;16.942;2024-02-15T12:11:36;20.63;;;10.43;;
55815;SDS011;41744;52.404;16.942;2024-02-15T12:14:21;20.80;;;10.50;;
55815;SDS011;41744;52.404;16.942;2024-02-15T12:19:50;24.47;;;10.63;;
55815;SDS011;41744;52.404;16.942;2024-02-15T12:22:28;22.33;;;11.23;;
55815;SDS011;41744;52.404;16.942;2024-02-15T12:24:56;23.20;;;11.40;;
55815;SDS011;41744;52.404;16.942;2024-02-15T12:27:23;25.67;;;12.23;;
55815;SDS011;41744;52.404;16.942;2024-02-15T12:29:52;24.43;;;12.53;;
55815;SDS011;41744;52.404;16.942;2024-02-15T12:32:22;27.00;;;13.70;;
55815;SDS011;41744;52.404;16.942;2024-02-15T12:34:48;25.00;;;12.70;;
55815;SDS011;41744;52.404;16.942;2024-02-15T12:37:17;27.53;;;12.83;;
55815;SDS011;41744;52.404;16.942;2024-02-15T12:39:43;24.60;;;12.40;;
55815;SDS011;41744;52.404;16.942;2024-02-15T12:42:09;26.97;;;12.87;;
55815;SDS011;41744;52.404;16.942;2024-02-15T12:44:36;22.50;;;11.43;;
55815;SDS011;41744;52.404;16.942;2024-02-15T12:47:02;31.37;;;12.73;;
55815;SDS011;41744;52.404;16.942;2024-02-15T12:49:30;28.38;;;12.55;;
55815;SDS011;41744;52.404;16.942;2024-02-15T12:54:42;24.90;;;12.37;;
55815;SDS011;41744;52.404;16.942;2024-02-15T12:57:09;29.47;;;13.13;;
55815;SDS011;41744;52.404;16.942;2024-02-15T12:59:35;25.43;;;12.27;;
55815;SDS011;41744;52.404;16.942;2024-02-15T13:02:02;27.97;;;13.50;;
55815;SDS011;41744;52.404;16.942;2024-02-15T13:04:29;27.47;;;12.97;;
55815;SDS011;41744;52.404;16.942;2024-02-15T13:06:55;29.10;;;13.20;;
55815;SDS011;41744;52.404;16.942;2024-02-15T13:09:21;26.93;;;12.90;;
55815;SDS011;41744;52.404;16.942;2024-02-15T13:11:48;23.60;;;11.87;;
55815;SDS011;41744;52.404;16.942;2024-02-15T13:14:15;29.27;;;13.03;;
55815;SDS011;41744;52.404;16.942;2024-02-15T13:16:41;25.00;;;12.88;;
55815;SDS011;41744;52.404;16.942;2024-02-15T13:19:09;27.60;;;13.53;;
55815;SDS011;41744;52.404;16.942;2024-02-15T13:21:35;27.17;;;13.07;;
55815;SDS011;41744;52.404;16.942;2024-02-15T13:24:01;25.90;;;11.97;;
55815;SDS011;41744;52.404;16.942;2024-02-15T13:26:30;30.77;;;14.10;;
55815;SDS011;41744;52.404;16.942;2024-02-15T13:28:57;27.43;;;12.43;;
55815;SDS011;41744;52.404;16.942;2024-02-15T13:31:23;25.90;;;13.13;;
55815;SDS011;41744;52.404;16.942;2024-02-15T13:33:49;32.90;;;14.53;;
55815;SDS011;41744;52.404;16.942;2024-02-15T13:36:16;30.00;;;13.37;;
55815;SDS011;41744;52.404;16.942;2024-02-15T13:38:42;29.77;;;13.50;;
55815;SDS011;41744;52.404;16.942;2024-02-15T13:41:08;31.70;;;13.40;;
55815;SDS011;41744;52.404;16.942;2024-02-15T13:43:34;30.50;;;13.67;;
55815;SDS011;41744;52.404;16.942;2024-02-15T13:46:00;28.67;;;13.90;;
55815;SDS011;41744;52.404;16.942;2024-02-15T13:48:29;28.97;;;14.33;;
55815;SDS011;41744;52.404;16.942;2024-02-15T13:50:56;29.70;;;14.10;;
55815;SDS011;41744;52.404;16.942;2024-02-15T13:53:23;33.80;;;15.13;;
55815;SDS011;41744;52.404;16.942;2024-02-15T13:55:50;35.70;;;15.63;;
55815;SDS011;41744;52.404;16.942;2024-02-15T13:58:17;30.67;;;15.07;;
55815;SDS011;41744;52.404;16.942;2024-02-15T14:00:43;33.17;;;15.70;;
55815;SDS011;41744;52.404;16.942;2024-02-15T14:03:10;40.77;;;17.70;;
55815;SDS011;41744;52.404;16.942;2024-02-15T14:05:37;39.83;;;17.60;;
55815;SDS011;41744;52.404;16.942;2024-02-15T14:08:05;42.67;;;18.80;;
55815;SDS011;41744;52.404;16.942;2024-02-15T14:10:35;41.13;;;18.30;;
55815;SDS011;41744;52.404;16.942;2024-02-15T14:13:02;38.17;;;17.90;;
55815;SDS011;41744;52.404;16.942;2024-02-15T14:15:33;47.57;;;19.60;;
55815;SDS011;41744;52.404;16.942;2024-02-15T14:18:05;44.40;;;19.73;;
55815;SDS011;41744;52.404;16.942;2024-02-15T14:20:31;45.23;;;19.47;;
55815;SDS011;41744;52.404;16.942;2024-02-15T14:22:57;42.57;;;19.43;;
55815;SDS011;41744;52.404;16.942;2024-02-15T14:25:28;46.97;;;20.00;;
55815;SDS011;41744;52.404;16.942;2024-02-15T14:27:56;44.80;;;20.10;;
55815;SDS011;41744;52.404;16.942;2024-02-15T14:30:23;43.40;;;19.97;;